sensor_id;sensor_type;location;lat;lon;timestamp;temperature;humidity
12981;DHT22;6555;50.468;8.480;2022-09-01T00:00:13;19.60;38.50
12981;DHT22;6555;50.468;8.480;2022-09-01T00:05:21;19.60;38.60
12981;DHT22;6555;50.468;8.480;2022-09-01T00:10:24;19.50;38.70
12981;DHT22;6555;50.468;8.480;2022-09-01T00:15:27;19.40;38.70
12981;DHT22;6555;50.468;8.480;2022-09-01T00:20:31;19.30;38.80
12981;DHT22;6555;50.468;8.480;2022-09-01T00:25:34;19.20;38.80
12981;DHT22;6555;50.468;8.480;2022-09-01T00:30:38;19.10;38.90
12981;DHT22;6555;50.468;8.480;2022-09-01T00:35:43;19.00;38.90
12981;DHT22;6555;50.468;8.480;2022-09-01T00:40:46;18.90;39.10
12981;DHT22;6555;50.468;8.480;2022-09-01T00:45:50;18.70;39.10
12981;DHT22;6555;50.468;8.480;2022-09-01T00:50:55;18.60;39.10
12981;DHT22;6555;50.468;8.480;2022-09-01T00:55:58;18.50;39.30
12981;DHT22;6555;50.468;8.480;2022-09-01T01:01:02;18.40;39.30
12981;DHT22;6555;50.468;8.480;2022-09-01T01:06:08;18.40;39.50
12981;DHT22;6555;50.468;8.480;2022-09-01T01:11:13;18.30;39.80
12981;DHT22;6555;50.468;8.480;2022-09-01T01:16:18;18.20;39.70
12981;DHT22;6555;50.468;8.480;2022-09-01T01:21:26;18.20;39.70
12981;DHT22;6555;50.468;8.480;2022-09-01T01:26:50;18.10;40.10
12981;DHT22;6555;50.468;8.480;2022-09-01T01:31:53;18.10;40.10
12981;DHT22;6555;50.468;8.480;2022-09-01T01:36:57;18.00;40.00
12981;DHT22;6555;50.468;8.480;2022-09-01T01:42:04;18.00;40.00
12981;DHT22;6555;50.468;8.480;2022-09-01T01:47:12;18.00;40.30
12981;DHT22;6555;50.468;8.480;2022-09-01T01:52:18;17.90;40.20
12981;DHT22;6555;50.468;8.480;2022-09-01T01:57:28;17.90;40.10
12981;DHT22;6555;50.468;8.480;2022-09-01T02:02:33;17.80;40.10
12981;DHT22;6555;50.468;8.480;2022-09-01T02:07:38;17.80;40.20
12981;DHT22;6555;50.468;8.480;2022-09-01T02:12:45;17.70;40.30
12981;DHT22;6555;50.468;8.480;2022-09-01T02:17:50;17.70;40.50
12981;DHT22;6555;50.468;8.480;2022-09-01T02:22:55;17.70;40.40
12981;DHT22;6555;50.468;8.480;2022-09-01T02:28:00;17.60;40.40
12981;DHT22;6555;50.468;8.480;2022-09-01T02:33:04;17.70;40.60
12981;DHT22;6555;50.468;8.480;2022-09-01T02:38:10;17.60;40.50
12981;DHT22;6555;50.468;8.480;2022-09-01T02:43:16;17.60;40.50
12981;DHT22;6555;50.468;8.480;2022-09-01T02:48:25;17.60;40.70
12981;DHT22;6555;50.468;8.480;2022-09-01T02:53:31;17.60;40.60
12981;DHT22;6555;50.468;8.480;2022-09-01T02:58:38;17.50;40.70
12981;DHT22;6555;50.468;8.480;2022-09-01T03:03:48;17.50;40.80
12981;DHT22;6555;50.468;8.480;2022-09-01T03:08:53;17.40;40.60
12981;DHT22;6555;50.468;8.480;2022-09-01T03:13:59;17.40;40.70
12981;DHT22;6555;50.468;8.480;2022-09-01T03:19:03;17.30;40.90
12981;DHT22;6555;50.468;8.480;2022-09-01T03:24:11;17.20;40.70
12981;DHT22;6555;50.468;8.480;2022-09-01T03:29:18;17.20;40.80
12981;DHT22;6555;50.468;8.480;2022-09-01T03:34:21;17.10;41.00
12981;DHT22;6555;50.468;8.480;2022-09-01T03:39:26;17.10;40.90
12981;DHT22;6555;50.468;8.480;2022-09-01T03:44:32;17.00;40.90
12981;DHT22;6555;50.468;8.480;2022-09-01T03:49:41;17.00;41.10
12981;DHT22;6555;50.468;8.480;2022-09-01T03:54:44;17.00;41.10
12981;DHT22;6555;50.468;8.480;2022-09-01T03:59:48;16.90;41.20
12981;DHT22;6555;50.468;8.480;2022-09-01T04:04:55;16.90;41.30
12981;DHT22;6555;50.468;8.480;2022-09-01T04:09:59;16.80;41.10
12981;DHT22;6555;50.468;8.480;2022-09-01T04:15:06;16.70;41.20
12981;DHT22;6555;50.468;8.480;2022-09-01T04:20:10;16.70;41.50
12981;DHT22;6555;50.468;8.480;2022-09-01T04:25:22;16.60;41.40
12981;DHT22;6555;50.468;8.480;2022-09-01T04:30:27;16.60;41.30
12981;DHT22;6555;50.468;8.480;2022-09-01T04:35:36;16.50;41.50
12981;DHT22;6555;50.468;8.480;2022-09-01T04:40:40;16.50;41.60
12981;DHT22;6555;50.468;8.480;2022-09-01T04:45:46;16.40;41.50
12981;DHT22;6555;50.468;8.480;2022-09-01T04:50:53;16.40;41.80
12981;DHT22;6555;50.468;8.480;2022-09-01T04:56:04;16.30;41.70
12981;DHT22;6555;50.468;8.480;2022-09-01T05:01:17;16.30;41.80
12981;DHT22;6555;50.468;8.480;2022-09-01T05:06:21;16.30;42.20
12981;DHT22;6555;50.468;8.480;2022-09-01T05:11:33;16.30;42.70
12981;DHT22;6555;50.468;8.480;2022-09-01T05:16:45;16.20;42.00
12981;DHT22;6555;50.468;8.480;2022-09-01T05:21:49;16.20;42.10
12981;DHT22;6555;50.468;8.480;2022-09-01T05:26:52;16.30;42.20
12981;DHT22;6555;50.468;8.480;2022-09-01T05:31:57;16.20;42.00
12981;DHT22;6555;50.468;8.480;2022-09-01T05:37:01;16.20;42.30
12981;DHT22;6555;50.468;8.480;2022-09-01T05:42:04;16.20;42.30
12981;DHT22;6555;50.468;8.480;2022-09-01T05:47:11;16.10;42.40
12981;DHT22;6555;50.468;8.480;2022-09-01T05:52:24;16.10;42.50
12981;DHT22;6555;50.468;8.480;2022-09-01T05:57:28;16.10;42.50
12981;DHT22;6555;50.468;8.480;2022-09-01T06:02:37;16.20;42.50
12981;DHT22;6555;50.468;8.480;2022-09-01T06:07:43;16.10;42.70
12981;DHT22;6555;50.468;8.480;2022-09-01T06:12:46;16.20;42.70
12981;DHT22;6555;50.468;8.480;2022-09-01T06:17:56;16.20;42.80
12981;DHT22;6555;50.468;8.480;2022-09-01T06:23:00;16.20;43.00
12981;DHT22;6555;50.468;8.480;2022-09-01T06:28:04;16.20;43.00
12981;DHT22;6555;50.468;8.480;2022-09-01T06:33:11;16.30;43.40
12981;DHT22;6555;50.468;8.480;2022-09-01T06:38:20;16.30;43.70
12981;DHT22;6555;50.468;8.480;2022-09-01T06:43:23;16.50;44.00
12981;DHT22;6555;50.468;8.480;2022-09-01T06:48:28;16.60;44.20
12981;DHT22;6555;50.468;8.480;2022-09-01T06:53:35;16.80;44.40
12981;DHT22;6555;50.468;8.480;2022-09-01T06:58:51;17.00;44.30
12981;DHT22;6555;50.468;8.480;2022-09-01T07:03:57;17.30;44.40
12981;DHT22;6555;50.468;8.480;2022-09-01T07:09:22;17.50;44.30
12981;DHT22;6555;50.468;8.480;2022-09-01T07:14:52;17.70;44.00
12981;DHT22;6555;50.468;8.480;2022-09-01T07:20:19;17.80;43.80
12981;DHT22;6555;50.468;8.480;2022-09-01T07:25:25;18.00;43.90
12981;DHT22;6555;50.468;8.480;2022-09-01T07:30:59;18.10;43.90
12981;DHT22;6555;50.468;8.480;2022-09-01T07:36:28;18.20;43.80
12981;DHT22;6555;50.468;8.480;2022-09-01T07:41:31;18.30;43.90
12981;DHT22;6555;50.468;8.480;2022-09-01T07:47:24;18.40;43.80
12981;DHT22;6555;50.468;8.480;2022-09-01T07:52:51;18.60;43.90
12981;DHT22;6555;50.468;8.480;2022-09-01T07:57:56;18.70;44.00
12981;DHT22;6555;50.468;8.480;2022-09-01T08:03:01;18.80;43.80
12981;DHT22;6555;50.468;8.480;2022-09-01T08:08:05;18.90;44.00
12981;DHT22;6555;50.468;8.480;2022-09-01T08:13:29;19.10;44.10
12981;DHT22;6555;50.468;8.480;2022-09-01T08:18:35;19.30;44.00
12981;DHT22;6555;50.468;8.480;2022-09-01T08:24:17;19.50;44.00
12981;DHT22;6555;50.468;8.480;2022-09-01T08:29:21;19.60;43.90
12981;DHT22;6555;50.468;8.480;2022-09-01T08:34:24;19.80;43.90
12981;DHT22;6555;50.468;8.480;2022-09-01T08:39:29;19.90;43.80
12981;DHT22;6555;50.468;8.480;2022-09-01T08:44:39;20.10;43.90
12981;DHT22;6555;50.468;8.480;2022-09-01T08:49:45;20.20;43.90
12981;DHT22;6555;50.468;8.480;2022-09-01T08:55:01;20.40;44.10
12981;DHT22;6555;50.468;8.480;2022-09-01T09:00:08;20.60;44.10
12981;DHT22;6555;50.468;8.480;2022-09-01T09:05:26;20.90;44.00
12981;DHT22;6555;50.468;8.480;2022-09-01T09:10:37;21.10;44.00
12981;DHT22;6555;50.468;8.480;2022-09-01T09:15:49;21.30;43.70
12981;DHT22;6555;50.468;8.480;2022-09-01T09:20:53;21.40;43.60
12981;DHT22;6555;50.468;8.480;2022-09-01T09:25:58;21.60;43.80
12981;DHT22;6555;50.468;8.480;2022-09-01T09:31:24;21.80;44.10
12981;DHT22;6555;50.468;8.480;2022-09-01T09:36:33;22.10;44.00
12981;DHT22;6555;50.468;8.480;2022-09-01T09:41:39;22.40;43.80
12981;DHT22;6555;50.468;8.480;2022-09-01T09:46:44;22.60;44.30
12981;DHT22;6555;50.468;8.480;2022-09-01T09:51:49;22.80;43.50
12981;DHT22;6555;50.468;8.480;2022-09-01T09:57:09;23.00;43.50
12981;DHT22;6555;50.468;8.480;2022-09-01T10:02:24;23.30;43.50
12981;DHT22;6555;50.468;8.480;2022-09-01T10:07:31;23.60;43.50
12981;DHT22;6555;50.468;8.480;2022-09-01T10:12:37;24.00;43.30
12981;DHT22;6555;50.468;8.480;2022-09-01T10:17:41;24.20;42.50
12981;DHT22;6555;50.468;8.480;2022-09-01T10:22:48;24.50;42.30
12981;DHT22;6555;50.468;8.480;2022-09-01T10:27:56;24.80;42.30
12981;DHT22;6555;50.468;8.480;2022-09-01T10:33:01;25.10;42.00
12981;DHT22;6555;50.468;8.480;2022-09-01T10:38:22;25.40;41.80
12981;DHT22;6555;50.468;8.480;2022-09-01T10:43:41;25.70;41.30
12981;DHT22;6555;50.468;8.480;2022-09-01T10:48:45;26.00;41.10
12981;DHT22;6555;50.468;8.480;2022-09-01T10:53:56;26.20;41.20
12981;DHT22;6555;50.468;8.480;2022-09-01T10:59:09;26.40;40.80
12981;DHT22;6555;50.468;8.480;2022-09-01T11:10:30;27.00;40.20
12981;DHT22;6555;50.468;8.480;2022-09-01T11:15:40;27.20;39.90
12981;DHT22;6555;50.468;8.480;2022-09-01T11:20:46;27.40;40.00
12981;DHT22;6555;50.468;8.480;2022-09-01T11:25:50;27.70;38.90
12981;DHT22;6555;50.468;8.480;2022-09-01T11:31:20;27.80;38.20
12981;DHT22;6555;50.468;8.480;2022-09-01T11:36:28;27.90;37.20
12981;DHT22;6555;50.468;8.480;2022-09-01T11:41:35;28.00;37.50
12981;DHT22;6555;50.468;8.480;2022-09-01T11:46:46;28.00;38.20
12981;DHT22;6555;50.468;8.480;2022-09-01T11:51:50;28.10;37.60
12981;DHT22;6555;50.468;8.480;2022-09-01T11:56:53;28.20;38.00
12981;DHT22;6555;50.468;8.480;2022-09-01T12:01:57;28.30;38.00
12981;DHT22;6555;50.468;8.480;2022-09-01T12:07:03;28.50;37.90
12981;DHT22;6555;50.468;8.480;2022-09-01T12:12:30;28.70;37.50
12981;DHT22;6555;50.468;8.480;2022-09-01T12:17:35;28.90;36.60
12981;DHT22;6555;50.468;8.480;2022-09-01T12:22:42;28.90;36.70
12981;DHT22;6555;50.468;8.480;2022-09-01T12:27:45;28.80;36.20
12981;DHT22;6555;50.468;8.480;2022-09-01T12:32:49;28.70;36.40
12981;DHT22;6555;50.468;8.480;2022-09-01T12:38:15;28.60;36.30
12981;DHT22;6555;50.468;8.480;2022-09-01T12:43:31;28.50;35.70
12981;DHT22;6555;50.468;8.480;2022-09-01T12:48:37;28.30;35.60
12981;DHT22;6555;50.468;8.480;2022-09-01T12:53:50;28.20;36.10
12981;DHT22;6555;50.468;8.480;2022-09-01T12:59:05;28.10;35.70
12981;DHT22;6555;50.468;8.480;2022-09-01T13:04:25;28.10;35.70
12981;DHT22;6555;50.468;8.480;2022-09-01T13:09:29;28.00;35.70
12981;DHT22;6555;50.468;8.480;2022-09-01T13:14:32;27.80;35.30
12981;DHT22;6555;50.468;8.480;2022-09-01T13:19:36;27.70;35.50
12981;DHT22;6555;50.468;8.480;2022-09-01T13:24:39;27.60;35.60
12981;DHT22;6555;50.468;8.480;2022-09-01T13:29:42;27.70;35.80
12981;DHT22;6555;50.468;8.480;2022-09-01T13:34:49;27.70;35.40
12981;DHT22;6555;50.468;8.480;2022-09-01T13:39:52;27.80;35.40
12981;DHT22;6555;50.468;8.480;2022-09-01T13:44:55;27.80;35.40
12981;DHT22;6555;50.468;8.480;2022-09-01T13:49:59;27.90;35.00
12981;DHT22;6555;50.468;8.480;2022-09-01T13:55:12;28.00;34.60
12981;DHT22;6555;50.468;8.480;2022-09-01T14:00:20;27.90;33.80
12981;DHT22;6555;50.468;8.480;2022-09-01T14:05:28;27.80;33.80
12981;DHT22;6555;50.468;8.480;2022-09-01T14:10:32;27.70;34.50
12981;DHT22;6555;50.468;8.480;2022-09-01T14:15:35;27.70;33.70
12981;DHT22;6555;50.468;8.480;2022-09-01T14:20:42;27.70;34.50
12981;DHT22;6555;50.468;8.480;2022-09-01T14:25:47;27.80;34.30
12981;DHT22;6555;50.468;8.480;2022-09-01T14:30:51;27.90;34.50
12981;DHT22;6555;50.468;8.480;2022-09-01T14:35:54;28.20;33.80
12981;DHT22;6555;50.468;8.480;2022-09-01T14:40:57;28.30;34.10
12981;DHT22;6555;50.468;8.480;2022-09-01T14:46:02;28.50;34.30
12981;DHT22;6555;50.468;8.480;2022-09-01T14:51:08;28.70;33.10
12981;DHT22;6555;50.468;8.480;2022-09-01T14:56:11;28.80;33.20
12981;DHT22;6555;50.468;8.480;2022-09-01T15:01:20;29.00;33.80
12981;DHT22;6555;50.468;8.480;2022-09-01T15:06:37;29.10;33.60
12981;DHT22;6555;50.468;8.480;2022-09-01T15:11:40;29.20;33.60
12981;DHT22;6555;50.468;8.480;2022-09-01T15:16:46;29.30;33.50
12981;DHT22;6555;50.468;8.480;2022-09-01T15:21:50;29.50;33.30
12981;DHT22;6555;50.468;8.480;2022-09-01T15:26:53;29.60;33.10
12981;DHT22;6555;50.468;8.480;2022-09-01T15:31:56;29.70;32.60
12981;DHT22;6555;50.468;8.480;2022-09-01T15:37:00;29.70;32.40
12981;DHT22;6555;50.468;8.480;2022-09-01T15:42:04;29.70;32.50
12981;DHT22;6555;50.468;8.480;2022-09-01T15:47:07;29.70;32.10
12981;DHT22;6555;50.468;8.480;2022-09-01T15:52:12;29.60;32.10
12981;DHT22;6555;50.468;8.480;2022-09-01T15:57:15;29.60;32.10
12981;DHT22;6555;50.468;8.480;2022-09-01T16:02:19;29.70;32.20
12981;DHT22;6555;50.468;8.480;2022-09-01T16:07:25;29.70;32.10
12981;DHT22;6555;50.468;8.480;2022-09-01T16:12:28;29.80;31.90
12981;DHT22;6555;50.468;8.480;2022-09-01T16:17:45;29.90;31.70
12981;DHT22;6555;50.468;8.480;2022-09-01T16:22:54;29.90;31.10
12981;DHT22;6555;50.468;8.480;2022-09-01T16:28:01;29.80;31.20
12981;DHT22;6555;50.468;8.480;2022-09-01T16:33:04;29.80;31.30
12981;DHT22;6555;50.468;8.480;2022-09-01T16:38:30;29.90;32.10
12981;DHT22;6555;50.468;8.480;2022-09-01T16:43:38;29.90;30.70
12981;DHT22;6555;50.468;8.480;2022-09-01T16:48:44;29.90;31.10
12981;DHT22;6555;50.468;8.480;2022-09-01T16:54:07;29.90;31.00
12981;DHT22;6555;50.468;8.480;2022-09-01T16:59:20;29.80;30.20
12981;DHT22;6555;50.468;8.480;2022-09-01T17:04:32;29.70;30.50
12981;DHT22;6555;50.468;8.480;2022-09-01T17:09:39;29.60;30.60
12981;DHT22;6555;50.468;8.480;2022-09-01T17:14:47;29.50;30.70
12981;DHT22;6555;50.468;8.480;2022-09-01T17:19:52;29.40;30.70
12981;DHT22;6555;50.468;8.480;2022-09-01T17:25:00;29.40;30.90
12981;DHT22;6555;50.468;8.480;2022-09-01T17:30:10;29.30;31.30
12981;DHT22;6555;50.468;8.480;2022-09-01T17:35:18;29.10;30.80
12981;DHT22;6555;50.468;8.480;2022-09-01T17:40:29;29.00;30.50
12981;DHT22;6555;50.468;8.480;2022-09-01T17:45:40;28.80;30.00
12981;DHT22;6555;50.468;8.480;2022-09-01T17:51:00;28.60;30.00
12981;DHT22;6555;50.468;8.480;2022-09-01T17:56:17;28.40;30.00
12981;DHT22;6555;50.468;8.480;2022-09-01T18:01:29;28.20;30.10
12981;DHT22;6555;50.468;8.480;2022-09-01T18:06:37;28.00;30.40
12981;DHT22;6555;50.468;8.480;2022-09-01T18:11:50;27.90;30.10
12981;DHT22;6555;50.468;8.480;2022-09-01T18:16:59;27.80;30.00
12981;DHT22;6555;50.468;8.480;2022-09-01T18:22:06;27.60;30.10
12981;DHT22;6555;50.468;8.480;2022-09-01T18:27:12;27.30;30.30
12981;DHT22;6555;50.468;8.480;2022-09-01T18:32:23;27.10;30.40
12981;DHT22;6555;50.468;8.480;2022-09-01T18:37:34;26.90;29.90
12981;DHT22;6555;50.468;8.480;2022-09-01T18:42:43;26.70;30.00
12981;DHT22;6555;50.468;8.480;2022-09-01T18:47:56;26.50;30.10
12981;DHT22;6555;50.468;8.480;2022-09-01T18:53:11;26.20;30.20
12981;DHT22;6555;50.468;8.480;2022-09-01T18:58:30;26.00;30.30
12981;DHT22;6555;50.468;8.480;2022-09-01T19:03:37;25.70;30.10
12981;DHT22;6555;50.468;8.480;2022-09-01T19:09:00;25.50;30.40
12981;DHT22;6555;50.468;8.480;2022-09-01T19:14:11;25.30;30.40
12981;DHT22;6555;50.468;8.480;2022-09-01T19:19:24;25.10;30.80
12981;DHT22;6555;50.468;8.480;2022-09-01T19:24:34;25.00;31.00
12981;DHT22;6555;50.468;8.480;2022-09-01T19:29:44;24.90;31.20
12981;DHT22;6555;50.468;8.480;2022-09-01T19:34:54;24.70;31.20
12981;DHT22;6555;50.468;8.480;2022-09-01T19:39:57;24.60;31.20
12981;DHT22;6555;50.468;8.480;2022-09-01T19:45:06;24.50;31.40
12981;DHT22;6555;50.468;8.480;2022-09-01T19:50:15;24.40;32.00
12981;DHT22;6555;50.468;8.480;2022-09-01T19:55:24;24.30;31.40
12981;DHT22;6555;50.468;8.480;2022-09-01T20:00:40;24.10;31.40
12981;DHT22;6555;50.468;8.480;2022-09-01T20:05:55;24.00;31.50
12981;DHT22;6555;50.468;8.480;2022-09-01T20:11:01;23.80;31.50
12981;DHT22;6555;50.468;8.480;2022-09-01T20:16:13;23.60;31.50
12981;DHT22;6555;50.468;8.480;2022-09-01T20:21:17;23.50;31.70
12981;DHT22;6555;50.468;8.480;2022-09-01T20:26:28;23.30;31.70
12981;DHT22;6555;50.468;8.480;2022-09-01T20:31:36;23.20;31.80
12981;DHT22;6555;50.468;8.480;2022-09-01T20:36:45;23.00;31.90
12981;DHT22;6555;50.468;8.480;2022-09-01T20:41:54;22.90;32.10
12981;DHT22;6555;50.468;8.480;2022-09-01T20:47:01;22.70;32.10
12981;DHT22;6555;50.468;8.480;2022-09-01T20:52:11;22.60;32.10
12981;DHT22;6555;50.468;8.480;2022-09-01T20:57:25;22.40;32.20
12981;DHT22;6555;50.468;8.480;2022-09-01T21:02:42;22.30;32.50
12981;DHT22;6555;50.468;8.480;2022-09-01T21:07:57;22.20;32.60
12981;DHT22;6555;50.468;8.480;2022-09-01T21:13:09;22.20;32.70
12981;DHT22;6555;50.468;8.480;2022-09-01T21:18:30;22.10;32.80
12981;DHT22;6555;50.468;8.480;2022-09-01T21:23:36;22.10;32.90
12981;DHT22;6555;50.468;8.480;2022-09-01T21:28:39;22.00;32.70
12981;DHT22;6555;50.468;8.480;2022-09-01T21:33:50;22.00;32.80
12981;DHT22;6555;50.468;8.480;2022-09-01T21:38:53;22.00;32.90
12981;DHT22;6555;50.468;8.480;2022-09-01T21:43:56;21.90;32.80
12981;DHT22;6555;50.468;8.480;2022-09-01T21:49:00;21.90;33.00
12981;DHT22;6555;50.468;8.480;2022-09-01T21:54:03;21.80;33.00
12981;DHT22;6555;50.468;8.480;2022-09-01T21:59:06;21.70;33.10
12981;DHT22;6555;50.468;8.480;2022-09-01T22:04:13;21.70;33.20
12981;DHT22;6555;50.468;8.480;2022-09-01T22:09:19;21.60;33.20
12981;DHT22;6555;50.468;8.480;2022-09-01T22:14:22;21.50;33.30
12981;DHT22;6555;50.468;8.480;2022-09-01T22:19:30;21.40;33.20
12981;DHT22;6555;50.468;8.480;2022-09-01T22:24:33;21.30;33.40
12981;DHT22;6555;50.468;8.480;2022-09-01T22:29:37;21.20;33.30
12981;DHT22;6555;50.468;8.480;2022-09-01T22:34:41;21.10;33.40
12981;DHT22;6555;50.468;8.480;2022-09-01T22:39:44;21.00;33.40
12981;DHT22;6555;50.468;8.480;2022-09-01T22:44:47;21.00;33.60
12981;DHT22;6555;50.468;8.480;2022-09-01T22:49:52;20.90;33.70
12981;DHT22;6555;50.468;8.480;2022-09-01T22:54:56;20.80;33.70
12981;DHT22;6555;50.468;8.480;2022-09-01T22:59:59;20.70;33.60
12981;DHT22;6555;50.468;8.480;2022-09-01T23:05:05;20.60;33.60
12981;DHT22;6555;50.468;8.480;2022-09-01T23:10:09;20.40;33.90
12981;DHT22;6555;50.468;8.480;2022-09-01T23:15:12;20.30;34.00
12981;DHT22;6555;50.468;8.480;2022-09-01T23:20:17;20.20;34.00
12981;DHT22;6555;50.468;8.480;2022-09-01T23:25:20;20.10;34.10
12981;DHT22;6555;50.468;8.480;2022-09-01T23:30:24;20.10;34.30
12981;DHT22;6555;50.468;8.480;2022-09-01T23:35:29;20.00;34.30
12981;DHT22;6555;50.468;8.480;2022-09-01T23:40:32;19.90;34.40
12981;DHT22;6555;50.468;8.480;2022-09-01T23:45:38;19.80;34.20
12981;DHT22;6555;50.468;8.480;2022-09-01T23:50:43;19.70;34.50
12981;DHT22;6555;50.468;8.480;2022-09-01T23:55:49;19.70;34.50
